| Date | Time | Temp. (oF) | Dew Point (oF) | Rel. Hum. (%) | Press. (in.) | Wind Dir. | Wind Speed (mph) | Hourly Rainfall (in.) |
|
|---|---|---|---|---|---|---|---|---|---|
| 1 | 12/11 | 00:00 | 15 | 13 | 94 | 30.17 | N | 0 | 0.00 |
| 2 | 12/10 | 23:00 | 16 | 14 | 93 | 30.19 | NNW | 0 | 0.00 |
| 3 | 12/10 | 22:00 | 16 | 13 | 90 | 30.18 | NNW | 0 | 0.00 |
| 4 | 12/10 | 21:00 | 18 | 14 | 86 | 30.20 | NNW | 1 | 0.00 |
| 5 | 12/10 | 20:00 | 21 | 16 | 83 | 30.23 | NNW | 2 | 0.00 |
| 6 | 12/10 | 19:00 | 23 | 16 | 77 | 30.23 | NW | 0 | 0.00 |
| 7 | 12/10 | 18:00 | 25 | 17 | 73 | 30.24 | NW | 1 | 0.00 |
| 8 | 12/10 | 17:00 | 27 | 17 | 68 | 30.25 | WNW | 1 | 0.00 |
| 9 | 12/10 | 16:00 | 29 | 17 | 63 | 30.25 | W | 2 | 0.00 |
| 10 | 12/10 | 15:00 | 30 | 18 | 62 | 30.26 | NW | 3 | 0.00 |
| 11 | 12/10 | 14:00 | 29 | 19 | 66 | 30.28 | WNW | 2 | 0.00 |
| 12 | 12/10 | 13:00 | 27 | 17 | 67 | 30.31 | WNW | 3 | 0.00 |
| 13 | 12/10 | 12:00 | 26 | 16 | 68 | 30.34 | SSW | 3 | 0.00 |
| 14 | 12/10 | 11:00 | 22 | 15 | 76 | 30.37 | N | 2 | 0.00 |
| 15 | 12/10 | 10:00 | 18 | 14 | 86 | 30.38 | S | 2 | 0.00 |
| 16 | 12/10 | 09:00 | 15 | 13 | 94 | 30.38 | SSE | 2 | 0.00 |
| 17 | 12/10 | 08:00 | 12 | 10 | 95 | 30.38 | S | 1 | 0.00 |
| 18 | 12/10 | 07:00 | 12 | 10 | 95 | 30.38 | SE | 0 | 0.00 |
| 19 | 12/10 | 06:00 | 11 | 10 | 96 | 30.39 | SE | 1 | 0.00 |
| 20 | 12/10 | 05:00 | 11 | 9 | 95 | 30.38 | NNW | 2 | 0.00 |
| 21 | 12/10 | 04:00 | 11 | 9 | 95 | 30.38 | NNW | 1 | 0.00 |
| 22 | 12/10 | 03:00 | 9 | 7 | 95 | 30.41 | ENE | 1 | 0.00 |
| 23 | 12/10 | 02:00 | 9 | 7 | 93 | 30.42 | NNE | 0 | 0.00 |
| 24 | 12/10 | 01:00 | 8 | 6 | 92 | 30.45 | NNE | 1 | 0.00 |